sensor_id;sensor_type;location;lat;lon;timestamp;P1;durP1;ratioP1;P2;durP2;ratioP2
63882;SDS011;50047;50.596;30.466;2023-06-24T00:01:46;7.50;;;5.10;;
63882;SDS011;50047;50.596;30.466;2023-06-24T00:04:14;5.80;;;4.60;;
63882;SDS011;50047;50.596;30.466;2023-06-24T00:06:45;11.20;;;5.60;;
63882;SDS011;50047;50.596;30.466;2023-06-24T00:09:12;5.60;;;4.80;;
63882;SDS011;50047;50.596;30.466;2023-06-24T00:11:40;6.40;;;5.20;;
63882;SDS011;50047;50.596;30.466;2023-06-24T00:14:08;8.50;;;5.10;;
63882;SDS011;50047;50.596;30.466;2023-06-24T00:16:36;5.40;;;4.60;;
63882;SDS011;50047;50.596;30.466;2023-06-24T00:19:04;6.30;;;4.70;;
63882;SDS011;50047;50.596;30.466;2023-06-24T00:21:32;5.00;;;4.50;;
63882;SDS011;50047;50.596;30.466;2023-06-24T00:24:00;5.50;;;4.30;;
63882;SDS011;50047;50.596;30.466;2023-06-24T00:26:32;4.40;;;3.90;;
63882;SDS011;50047;50.596;30.466;2023-06-24T00:29:00;4.80;;;4.40;;
63882;SDS011;50047;50.596;30.466;2023-06-24T00:31:27;6.10;;;4.90;;
63882;SDS011;50047;50.596;30.466;2023-06-24T00:33:55;7.40;;;5.10;;
63882;SDS011;50047;50.596;30.466;2023-06-24T00:36:23;6.20;;;5.60;;
63882;SDS011;50047;50.596;30.466;2023-06-24T00:38:51;10.40;;;6.10;;
63882;SDS011;50047;50.596;30.466;2023-06-24T00:41:18;9.40;;;6.40;;
63882;SDS011;50047;50.596;30.466;2023-06-24T00:43:47;9.00;;;6.20;;
63882;SDS011;50047;50.596;30.466;2023-06-24T00:46:15;8.60;;;6.90;;
63882;SDS011;50047;50.596;30.466;2023-06-24T00:48:43;10.50;;;7.30;;
63882;SDS011;50047;50.596;30.466;2023-06-24T00:51:10;8.70;;;6.80;;
63882;SDS011;50047;50.596;30.466;2023-06-24T00:53:38;9.00;;;7.20;;
63882;SDS011;50047;50.596;30.466;2023-06-24T00:56:07;9.50;;;6.80;;
63882;SDS011;50047;50.596;30.466;2023-06-24T00:58:34;9.90;;;7.20;;
63882;SDS011;50047;50.596;30.466;2023-06-24T01:01:04;8.40;;;6.80;;
63882;SDS011;50047;50.596;30.466;2023-06-24T01:03:36;13.80;;;7.60;;
63882;SDS011;50047;50.596;30.466;2023-06-24T01:06:04;10.60;;;7.10;;
63882;SDS011;50047;50.596;30.466;2023-06-24T01:08:32;9.80;;;6.80;;
63882;SDS011;50047;50.596;30.466;2023-06-24T01:11:03;9.20;;;7.20;;
63882;SDS011;50047;50.596;30.466;2023-06-24T01:13:30;8.80;;;7.00;;
63882;SDS011;50047;50.596;30.466;2023-06-24T01:16:00;8.40;;;6.90;;
63882;SDS011;50047;50.596;30.466;2023-06-24T01:18:43;9.20;;;7.10;;
63882;SDS011;50047;50.596;30.466;2023-06-24T01:21:18;10.90;;;6.90;;
63882;SDS011;50047;50.596;30.466;2023-06-24T01:29:45;8.10;;;7.20;;
63882;SDS011;50047;50.596;30.466;2023-06-24T01:34:57;12.10;;;8.00;;
63882;SDS011;50047;50.596;30.466;2023-06-24T01:40:05;10.40;;;7.20;;
63882;SDS011;50047;50.596;30.466;2023-06-24T01:42:39;13.00;;;8.30;;
63882;SDS011;50047;50.596;30.466;2023-06-24T01:45:10;13.20;;;8.40;;
63882;SDS011;50047;50.596;30.466;2023-06-24T01:47:43;9.40;;;7.40;;
63882;SDS011;50047;50.596;30.466;2023-06-24T01:50:16;10.60;;;7.80;;
63882;SDS011;50047;50.596;30.466;2023-06-24T01:52:49;17.50;;;8.80;;
63882;SDS011;50047;50.596;30.466;2023-06-24T01:55:20;18.40;;;8.90;;
63882;SDS011;50047;50.596;30.466;2023-06-24T01:57:50;11.90;;;8.30;;
63882;SDS011;50047;50.596;30.466;2023-06-24T02:00:19;11.60;;;8.40;;
63882;SDS011;50047;50.596;30.466;2023-06-24T02:02:49;11.80;;;9.30;;
63882;SDS011;50047;50.596;30.466;2023-06-24T02:05:18;12.10;;;8.70;;
63882;SDS011;50047;50.596;30.466;2023-06-24T02:07:48;13.90;;;9.10;;
63882;SDS011;50047;50.596;30.466;2023-06-24T02:10:20;9.00;;;5.90;;
63882;SDS011;50047;50.596;30.466;2023-06-24T02:12:50;13.50;;;7.40;;
63882;SDS011;50047;50.596;30.466;2023-06-24T02:15:21;10.50;;;7.00;;
63882;SDS011;50047;50.596;30.466;2023-06-24T02:17:50;12.40;;;8.60;;
63882;SDS011;50047;50.596;30.466;2023-06-24T02:20:24;14.40;;;9.30;;
63882;SDS011;50047;50.596;30.466;2023-06-24T02:22:54;10.90;;;9.30;;
63882;SDS011;50047;50.596;30.466;2023-06-24T02:25:23;14.10;;;8.70;;
63882;SDS011;50047;50.596;30.466;2023-06-24T02:27:53;14.40;;;9.10;;
63882;SDS011;50047;50.596;30.466;2023-06-24T02:30:22;15.00;;;9.00;;
63882;SDS011;50047;50.596;30.466;2023-06-24T02:32:51;15.80;;;9.70;;
63882;SDS011;50047;50.596;30.466;2023-06-24T02:35:20;13.70;;;8.80;;
63882;SDS011;50047;50.596;30.466;2023-06-24T02:37:47;15.10;;;9.20;;
63882;SDS011;50047;50.596;30.466;2023-06-24T02:40:16;20.70;;;9.20;;
63882;SDS011;50047;50.596;30.466;2023-06-24T02:42:43;16.30;;;8.40;;
63882;SDS011;50047;50.596;30.466;2023-06-24T02:45:11;14.70;;;7.90;;
63882;SDS011;50047;50.596;30.466;2023-06-24T02:47:40;14.30;;;8.90;;
63882;SDS011;50047;50.596;30.466;2023-06-24T02:52:40;11.40;;;8.00;;
63882;SDS011;50047;50.596;30.466;2023-06-24T02:55:09;12.30;;;8.20;;
63882;SDS011;50047;50.596;30.466;2023-06-24T02:57:49;14.40;;;8.90;;
63882;SDS011;50047;50.596;30.466;2023-06-24T03:00:40;13.10;;;8.60;;
63882;SDS011;50047;50.596;30.466;2023-06-24T03:03:08;12.90;;;8.90;;
63882;SDS011;50047;50.596;30.466;2023-06-24T03:05:43;10.70;;;8.30;;
63882;SDS011;50047;50.596;30.466;2023-06-24T03:08:12;10.40;;;7.80;;
63882;SDS011;50047;50.596;30.466;2023-06-24T03:10:41;15.40;;;8.30;;
63882;SDS011;50047;50.596;30.466;2023-06-24T03:13:13;12.40;;;8.60;;
63882;SDS011;50047;50.596;30.466;2023-06-24T03:15:44;14.60;;;8.50;;
63882;SDS011;50047;50.596;30.466;2023-06-24T03:18:12;13.00;;;9.10;;
63882;SDS011;50047;50.596;30.466;2023-06-24T03:20:40;10.70;;;8.90;;
63882;SDS011;50047;50.596;30.466;2023-06-24T03:23:11;9.10;;;8.10;;
63882;SDS011;50047;50.596;30.466;2023-06-24T03:25:39;11.30;;;8.60;;
63882;SDS011;50047;50.596;30.466;2023-06-24T03:28:07;11.80;;;8.50;;
63882;SDS011;50047;50.596;30.466;2023-06-24T03:30:39;10.90;;;8.20;;
63882;SDS011;50047;50.596;30.466;2023-06-24T03:33:06;12.20;;;8.60;;
63882;SDS011;50047;50.596;30.466;2023-06-24T03:35:34;11.90;;;8.80;;
63882;SDS011;50047;50.596;30.466;2023-06-24T03:38:04;11.30;;;8.30;;
63882;SDS011;50047;50.596;30.466;2023-06-24T03:40:33;11.60;;;8.50;;
63882;SDS011;50047;50.596;30.466;2023-06-24T03:43:00;13.20;;;8.50;;
63882;SDS011;50047;50.596;30.466;2023-06-24T03:45:28;12.90;;;9.20;;
63882;SDS011;50047;50.596;30.466;2023-06-24T03:47:56;15.30;;;8.60;;
63882;SDS011;50047;50.596;30.466;2023-06-24T03:50:24;10.40;;;8.00;;
63882;SDS011;50047;50.596;30.466;2023-06-24T03:52:52;14.00;;;8.60;;
63882;SDS011;50047;50.596;30.466;2023-06-24T03:55:21;11.30;;;7.60;;
63882;SDS011;50047;50.596;30.466;2023-06-24T03:57:49;10.50;;;7.80;;
63882;SDS011;50047;50.596;30.466;2023-06-24T04:00:17;10.90;;;7.70;;
63882;SDS011;50047;50.596;30.466;2023-06-24T04:02:48;12.90;;;7.60;;
63882;SDS011;50047;50.596;30.466;2023-06-24T04:05:18;10.50;;;8.50;;
63882;SDS011;50047;50.596;30.466;2023-06-24T04:07:45;11.00;;;7.70;;
63882;SDS011;50047;50.596;30.466;2023-06-24T04:10:17;13.60;;;7.60;;
63882;SDS011;50047;50.596;30.466;2023-06-24T04:12:45;11.00;;;7.30;;
63882;SDS011;50047;50.596;30.466;2023-06-24T04:15:13;8.90;;;7.10;;
63882;SDS011;50047;50.596;30.466;2023-06-24T04:17:41;11.50;;;7.60;;
63882;SDS011;50047;50.596;30.466;2023-06-24T04:20:09;11.10;;;7.70;;
63882;SDS011;50047;50.596;30.466;2023-06-24T04:22:38;12.70;;;7.60;;
63882;SDS011;50047;50.596;30.466;2023-06-24T04:25:08;11.10;;;7.90;;
63882;SDS011;50047;50.596;30.466;2023-06-24T04:27:36;10.70;;;7.40;;
63882;SDS011;50047;50.596;30.466;2023-06-24T04:30:06;12.30;;;7.50;;
63882;SDS011;50047;50.596;30.466;2023-06-24T04:32:34;11.00;;;7.30;;
63882;SDS011;50047;50.596;30.466;2023-06-24T04:35:02;13.30;;;7.20;;
63882;SDS011;50047;50.596;30.466;2023-06-24T04:37:30;12.10;;;8.10;;
63882;SDS011;50047;50.596;30.466;2023-06-24T04:39:58;8.50;;;6.40;;
63882;SDS011;50047;50.596;30.466;2023-06-24T04:42:26;11.60;;;7.70;;
63882;SDS011;50047;50.596;30.466;2023-06-24T04:44:54;12.20;;;6.80;;
63882;SDS011;50047;50.596;30.466;2023-06-24T04:47:21;9.80;;;6.50;;
63882;SDS011;50047;50.596;30.466;2023-06-24T04:49:49;14.80;;;6.90;;
63882;SDS011;50047;50.596;30.466;2023-06-24T04:52:17;11.10;;;6.20;;
63882;SDS011;50047;50.596;30.466;2023-06-24T04:54:45;13.50;;;6.60;;
63882;SDS011;50047;50.596;30.466;2023-06-24T04:57:22;9.40;;;6.70;;
63882;SDS011;50047;50.596;30.466;2023-06-24T04:59:59;8.60;;;6.20;;
63882;SDS011;50047;50.596;30.466;2023-06-24T05:02:27;10.40;;;5.90;;
63882;SDS011;50047;50.596;30.466;2023-06-24T05:04:55;8.30;;;6.10;;
63882;SDS011;50047;50.596;30.466;2023-06-24T05:07:23;7.60;;;6.40;;
63882;SDS011;50047;50.596;30.466;2023-06-24T05:09:51;12.10;;;6.50;;
63882;SDS011;50047;50.596;30.466;2023-06-24T05:12:19;9.50;;;6.50;;
63882;SDS011;50047;50.596;30.466;2023-06-24T05:14:53;11.50;;;6.60;;
63882;SDS011;50047;50.596;30.466;2023-06-24T05:17:20;17.10;;;6.40;;
63882;SDS011;50047;50.596;30.466;2023-06-24T05:19:48;9.30;;;6.20;;
63882;SDS011;50047;50.596;30.466;2023-06-24T05:22:16;14.10;;;6.30;;
63882;SDS011;50047;50.596;30.466;2023-06-24T05:24:44;8.80;;;5.90;;
63882;SDS011;50047;50.596;30.466;2023-06-24T05:27:11;11.10;;;6.50;;
63882;SDS011;50047;50.596;30.466;2023-06-24T05:29:39;8.20;;;5.80;;
63882;SDS011;50047;50.596;30.466;2023-06-24T05:32:07;9.20;;;6.00;;
63882;SDS011;50047;50.596;30.466;2023-06-24T05:34:34;10.40;;;5.60;;
63882;SDS011;50047;50.596;30.466;2023-06-24T05:37:02;7.50;;;4.90;;
63882;SDS011;50047;50.596;30.466;2023-06-24T05:39:30;10.20;;;5.50;;
63882;SDS011;50047;50.596;30.466;2023-06-24T05:41:59;7.50;;;5.50;;
63882;SDS011;50047;50.596;30.466;2023-06-24T05:44:26;9.90;;;5.60;;
63882;SDS011;50047;50.596;30.466;2023-06-24T05:46:54;12.50;;;5.70;;
63882;SDS011;50047;50.596;30.466;2023-06-24T05:49:22;10.10;;;4.80;;
63882;SDS011;50047;50.596;30.466;2023-06-24T05:51:50;11.80;;;5.20;;
63882;SDS011;50047;50.596;30.466;2023-06-24T05:54:17;10.80;;;4.80;;
63882;SDS011;50047;50.596;30.466;2023-06-24T05:56:45;8.90;;;4.70;;
63882;SDS011;50047;50.596;30.466;2023-06-24T05:59:13;10.40;;;4.80;;
63882;SDS011;50047;50.596;30.466;2023-06-24T06:01:40;10.60;;;4.80;;
63882;SDS011;50047;50.596;30.466;2023-06-24T06:04:08;9.20;;;4.70;;
63882;SDS011;50047;50.596;30.466;2023-06-24T06:06:36;7.70;;;4.10;;
63882;SDS011;50047;50.596;30.466;2023-06-24T06:09:04;9.60;;;4.40;;
63882;SDS011;50047;50.596;30.466;2023-06-24T06:11:33;8.80;;;4.40;;
63882;SDS011;50047;50.596;30.466;2023-06-24T06:14:00;10.30;;;4.20;;
63882;SDS011;50047;50.596;30.466;2023-06-24T06:16:28;7.70;;;4.10;;
63882;SDS011;50047;50.596;30.466;2023-06-24T06:18:56;10.20;;;4.40;;
63882;SDS011;50047;50.596;30.466;2023-06-24T06:21:24;9.30;;;4.00;;
63882;SDS011;50047;50.596;30.466;2023-06-24T06:23:52;7.30;;;4.00;;
63882;SDS011;50047;50.596;30.466;2023-06-24T06:26:19;9.80;;;4.00;;
63882;SDS011;50047;50.596;30.466;2023-06-24T06:28:47;9.00;;;3.50;;
63882;SDS011;50047;50.596;30.466;2023-06-24T06:31:15;9.40;;;3.80;;
63882;SDS011;50047;50.596;30.466;2023-06-24T06:33:43;7.70;;;3.60;;
63882;SDS011;50047;50.596;30.466;2023-06-24T06:36:11;6.90;;;3.40;;
63882;SDS011;50047;50.596;30.466;2023-06-24T06:38:39;9.20;;;3.60;;
63882;SDS011;50047;50.596;30.466;2023-06-24T06:41:07;9.20;;;3.60;;
63882;SDS011;50047;50.596;30.466;2023-06-24T06:43:35;7.00;;;3.40;;
63882;SDS011;50047;50.596;30.466;2023-06-24T06:46:03;5.60;;;3.20;;
63882;SDS011;50047;50.596;30.466;2023-06-24T06:48:30;7.90;;;3.50;;
63882;SDS011;50047;50.596;30.466;2023-06-24T06:50:58;8.40;;;3.10;;
63882;SDS011;50047;50.596;30.466;2023-06-24T06:53:26;7.90;;;4.00;;
63882;SDS011;50047;50.596;30.466;2023-06-24T06:55:54;6.70;;;3.90;;
63882;SDS011;50047;50.596;30.466;2023-06-24T06:58:21;9.50;;;3.90;;
63882;SDS011;50047;50.596;30.466;2023-06-24T07:00:49;7.70;;;3.70;;
63882;SDS011;50047;50.596;30.466;2023-06-24T07:03:17;8.10;;;3.80;;
63882;SDS011;50047;50.596;30.466;2023-06-24T07:05:45;5.40;;;3.80;;
63882;SDS011;50047;50.596;30.466;2023-06-24T07:08:13;11.40;;;4.80;;
63882;SDS011;50047;50.596;30.466;2023-06-24T07:10:41;8.90;;;3.70;;
63882;SDS011;50047;50.596;30.466;2023-06-24T07:13:09;8.10;;;3.90;;
63882;SDS011;50047;50.596;30.466;2023-06-24T07:15:36;9.70;;;4.20;;
63882;SDS011;50047;50.596;30.466;2023-06-24T07:18:04;7.80;;;3.90;;
63882;SDS011;50047;50.596;30.466;2023-06-24T07:20:32;8.70;;;4.10;;
63882;SDS011;50047;50.596;30.466;2023-06-24T07:22:59;10.30;;;3.80;;
63882;SDS011;50047;50.596;30.466;2023-06-24T07:25:27;8.20;;;3.60;;
63882;SDS011;50047;50.596;30.466;2023-06-24T07:27:55;6.50;;;3.80;;
63882;SDS011;50047;50.596;30.466;2023-06-24T07:30:23;8.90;;;4.20;;
63882;SDS011;50047;50.596;30.466;2023-06-24T07:32:51;12.60;;;3.60;;
63882;SDS011;50047;50.596;30.466;2023-06-24T07:35:18;8.70;;;3.60;;
63882;SDS011;50047;50.596;30.466;2023-06-24T07:37:46;9.00;;;3.80;;
63882;SDS011;50047;50.596;30.466;2023-06-24T07:40:14;6.60;;;3.80;;
63882;SDS011;50047;50.596;30.466;2023-06-24T07:42:42;13.90;;;4.40;;
63882;SDS011;50047;50.596;30.466;2023-06-24T07:45:10;9.20;;;4.30;;
63882;SDS011;50047;50.596;30.466;2023-06-24T07:47:37;7.30;;;3.60;;
63882;SDS011;50047;50.596;30.466;2023-06-24T07:50:05;7.50;;;3.90;;
63882;SDS011;50047;50.596;30.466;2023-06-24T07:52:33;5.70;;;3.70;;
63882;SDS011;50047;50.596;30.466;2023-06-24T07:55:01;7.40;;;3.90;;
63882;SDS011;50047;50.596;30.466;2023-06-24T07:57:29;7.50;;;3.60;;
63882;SDS011;50047;50.596;30.466;2023-06-24T07:59:57;9.90;;;3.80;;
63882;SDS011;50047;50.596;30.466;2023-06-24T08:02:24;8.90;;;3.90;;
63882;SDS011;50047;50.596;30.466;2023-06-24T08:04:55;9.60;;;4.00;;
63882;SDS011;50047;50.596;30.466;2023-06-24T08:07:23;10.90;;;3.90;;
63882;SDS011;50047;50.596;30.466;2023-06-24T08:09:51;12.40;;;3.70;;
63882;SDS011;50047;50.596;30.466;2023-06-24T08:12:18;12.60;;;3.70;;
63882;SDS011;50047;50.596;30.466;2023-06-24T08:14:46;9.20;;;3.60;;
63882;SDS011;50047;50.596;30.466;2023-06-24T08:17:14;12.50;;;3.70;;
63882;SDS011;50047;50.596;30.466;2023-06-24T08:19:42;10.80;;;4.10;;
63882;SDS011;50047;50.596;30.466;2023-06-24T08:22:09;12.60;;;3.70;;
63882;SDS011;50047;50.596;30.466;2023-06-24T08:24:37;9.10;;;3.40;;
63882;SDS011;50047;50.596;30.466;2023-06-24T08:27:07;10.40;;;3.50;;
63882;SDS011;50047;50.596;30.466;2023-06-24T08:29:35;10.40;;;4.00;;
63882;SDS011;50047;50.596;30.466;2023-06-24T08:32:05;10.60;;;3.10;;
63882;SDS011;50047;50.596;30.466;2023-06-24T08:34:36;8.10;;;3.50;;
63882;SDS011;50047;50.596;30.466;2023-06-24T08:37:03;12.40;;;5.10;;
63882;SDS011;50047;50.596;30.466;2023-06-24T08:39:31;11.50;;;3.50;;
63882;SDS011;50047;50.596;30.466;2023-06-24T08:41:59;6.30;;;3.00;;
63882;SDS011;50047;50.596;30.466;2023-06-24T08:44:27;9.70;;;3.40;;
63882;SDS011;50047;50.596;30.466;2023-06-24T08:46:54;8.80;;;3.80;;
63882;SDS011;50047;50.596;30.466;2023-06-24T08:52:02;9.10;;;3.60;;
63882;SDS011;50047;50.596;30.466;2023-06-24T08:54:35;10.30;;;3.00;;
63882;SDS011;50047;50.596;30.466;2023-06-24T08:57:03;17.60;;;3.70;;
63882;SDS011;50047;50.596;30.466;2023-06-24T08:59:33;10.40;;;3.60;;
63882;SDS011;50047;50.596;30.466;2023-06-24T09:02:02;9.80;;;3.80;;
63882;SDS011;50047;50.596;30.466;2023-06-24T09:04:30;11.70;;;3.60;;
63882;SDS011;50047;50.596;30.466;2023-06-24T09:06:58;20.60;;;4.00;;
63882;SDS011;50047;50.596;30.466;2023-06-24T09:09:26;8.50;;;3.90;;
63882;SDS011;50047;50.596;30.466;2023-06-24T09:11:57;8.40;;;3.80;;
63882;SDS011;50047;50.596;30.466;2023-06-24T09:14:27;7.10;;;3.20;;
63882;SDS011;50047;50.596;30.466;2023-06-24T09:16:58;10.50;;;3.20;;
63882;SDS011;50047;50.596;30.466;2023-06-24T09:19:31;10.40;;;3.80;;
63882;SDS011;50047;50.596;30.466;2023-06-24T09:22:04;13.10;;;3.10;;
63882;SDS011;50047;50.596;30.466;2023-06-24T09:24:34;8.40;;;3.30;;
63882;SDS011;50047;50.596;30.466;2023-06-24T09:27:03;12.20;;;3.70;;
63882;SDS011;50047;50.596;30.466;2023-06-24T09:29:32;7.30;;;3.60;;
63882;SDS011;50047;50.596;30.466;2023-06-24T09:32:04;14.20;;;3.70;;
63882;SDS011;50047;50.596;30.466;2023-06-24T09:34:33;8.20;;;3.60;;
63882;SDS011;50047;50.596;30.466;2023-06-24T09:37:02;12.90;;;3.70;;
63882;SDS011;50047;50.596;30.466;2023-06-24T09:39:34;8.90;;;3.70;;
63882;SDS011;50047;50.596;30.466;2023-06-24T09:42:07;7.50;;;3.40;;
63882;SDS011;50047;50.596;30.466;2023-06-24T09:44:36;14.90;;;4.20;;
63882;SDS011;50047;50.596;30.466;2023-06-24T09:47:03;14.70;;;4.10;;
63882;SDS011;50047;50.596;30.466;2023-06-24T09:49:31;12.40;;;3.70;;
63882;SDS011;50047;50.596;30.466;2023-06-24T09:51:59;12.80;;;3.70;;
63882;SDS011;50047;50.596;30.466;2023-06-24T09:54:28;14.80;;;4.10;;
63882;SDS011;50047;50.596;30.466;2023-06-24T09:57:01;6.40;;;3.20;;
63882;SDS011;50047;50.596;30.466;2023-06-24T09:59:31;9.50;;;3.80;;
63882;SDS011;50047;50.596;30.466;2023-06-24T10:02:02;10.40;;;3.70;;
63882;SDS011;50047;50.596;30.466;2023-06-24T10:04:31;11.40;;;3.70;;
63882;SDS011;50047;50.596;30.466;2023-06-24T10:07:00;9.10;;;3.70;;
63882;SDS011;50047;50.596;30.466;2023-06-24T10:09:30;12.10;;;3.80;;
63882;SDS011;50047;50.596;30.466;2023-06-24T10:11:58;11.10;;;3.70;;
63882;SDS011;50047;50.596;30.466;2023-06-24T10:14:25;7.80;;;3.30;;
63882;SDS011;50047;50.596;30.466;2023-06-24T10:17:01;6.60;;;3.10;;
63882;SDS011;50047;50.596;30.466;2023-06-24T10:19:39;6.80;;;3.50;;
63882;SDS011;50047;50.596;30.466;2023-06-24T10:22:08;11.20;;;3.60;;
63882;SDS011;50047;50.596;30.466;2023-06-24T10:24:39;7.90;;;3.60;;
63882;SDS011;50047;50.596;30.466;2023-06-24T10:27:13;6.00;;;3.10;;
63882;SDS011;50047;50.596;30.466;2023-06-24T10:29:47;5.60;;;3.30;;
63882;SDS011;50047;50.596;30.466;2023-06-24T10:32:28;9.80;;;3.30;;
63882;SDS011;50047;50.596;30.466;2023-06-24T10:35:20;7.90;;;3.10;;
63882;SDS011;50047;50.596;30.466;2023-06-24T10:37:54;8.30;;;3.80;;
63882;SDS011;50047;50.596;30.466;2023-06-24T10:40:42;12.10;;;3.90;;
63882;SDS011;50047;50.596;30.466;2023-06-24T10:45:57;7.70;;;3.60;;
63882;SDS011;50047;50.596;30.466;2023-06-24T10:48:26;10.00;;;3.60;;
63882;SDS011;50047;50.596;30.466;2023-06-24T10:50:54;5.80;;;3.40;;
63882;SDS011;50047;50.596;30.466;2023-06-24T10:53:22;8.90;;;3.60;;
63882;SDS011;50047;50.596;30.466;2023-06-24T10:55:49;9.40;;;3.70;;
63882;SDS011;50047;50.596;30.466;2023-06-24T10:58:17;5.80;;;3.10;;
63882;SDS011;50047;50.596;30.466;2023-06-24T11:00:45;6.10;;;3.40;;
63882;SDS011;50047;50.596;30.466;2023-06-24T11:03:14;6.60;;;3.00;;
63882;SDS011;50047;50.596;30.466;2023-06-24T11:05:44;7.10;;;3.40;;
63882;SDS011;50047;50.596;30.466;2023-06-24T11:08:13;12.70;;;4.10;;
63882;SDS011;50047;50.596;30.466;2023-06-24T11:10:41;6.70;;;3.50;;
63882;SDS011;50047;50.596;30.466;2023-06-24T11:13:11;7.40;;;3.30;;
63882;SDS011;50047;50.596;30.466;2023-06-24T11:15:39;8.30;;;3.40;;
63882;SDS011;50047;50.596;30.466;2023-06-24T11:18:10;8.00;;;3.70;;
63882;SDS011;50047;50.596;30.466;2023-06-24T11:20:38;7.10;;;3.50;;
63882;SDS011;50047;50.596;30.466;2023-06-24T11:23:07;9.60;;;3.40;;
63882;SDS011;50047;50.596;30.466;2023-06-24T11:25:39;11.30;;;4.00;;
63882;SDS011;50047;50.596;30.466;2023-06-24T11:28:17;9.10;;;3.80;;
63882;SDS011;50047;50.596;30.466;2023-06-24T11:30:49;9.70;;;3.90;;
63882;SDS011;50047;50.596;30.466;2023-06-24T11:33:27;10.10;;;3.50;;
63882;SDS011;50047;50.596;30.466;2023-06-24T11:35:56;10.20;;;3.70;;
63882;SDS011;50047;50.596;30.466;2023-06-24T11:38:23;9.20;;;4.30;;
63882;SDS011;50047;50.596;30.466;2023-06-24T11:40:51;9.40;;;3.90;;
63882;SDS011;50047;50.596;30.466;2023-06-24T11:43:19;8.90;;;3.60;;
63882;SDS011;50047;50.596;30.466;2023-06-24T11:45:47;9.20;;;3.60;;
63882;SDS011;50047;50.596;30.466;2023-06-24T11:48:15;11.20;;;4.40;;
63882;SDS011;50047;50.596;30.466;2023-06-24T11:50:43;8.10;;;4.10;;
63882;SDS011;50047;50.596;30.466;2023-06-24T11:53:11;8.90;;;3.90;;
63882;SDS011;50047;50.596;30.466;2023-06-24T11:55:38;9.70;;;4.00;;
63882;SDS011;50047;50.596;30.466;2023-06-24T11:58:06;7.30;;;4.40;;
63882;SDS011;50047;50.596;30.466;2023-06-24T12:00:40;9.00;;;4.20;;
63882;SDS011;50047;50.596;30.466;2023-06-24T12:03:12;7.40;;;4.30;;
63882;SDS011;50047;50.596;30.466;2023-06-24T12:05:40;7.10;;;4.10;;
63882;SDS011;50047;50.596;30.466;2023-06-24T12:08:13;8.30;;;4.20;;
63882;SDS011;50047;50.596;30.466;2023-06-24T12:10:44;7.20;;;4.40;;
63882;SDS011;50047;50.596;30.466;2023-06-24T12:13:12;8.10;;;4.60;;
63882;SDS011;50047;50.596;30.466;2023-06-24T12:15:40;6.50;;;4.30;;
63882;SDS011;50047;50.596;30.466;2023-06-24T12:18:09;9.90;;;3.60;;
63882;SDS011;50047;50.596;30.466;2023-06-24T12:20:37;7.10;;;3.30;;
63882;SDS011;50047;50.596;30.466;2023-06-24T12:23:05;6.40;;;3.20;;
63882;SDS011;50047;50.596;30.466;2023-06-24T12:25:33;9.70;;;3.90;;
63882;SDS011;50047;50.596;30.466;2023-06-24T12:28:01;6.40;;;2.90;;
63882;SDS011;50047;50.596;30.466;2023-06-24T12:30:29;11.60;;;3.30;;
63882;SDS011;50047;50.596;30.466;2023-06-24T12:32:56;6.50;;;3.40;;
63882;SDS011;50047;50.596;30.466;2023-06-24T12:35:24;6.40;;;3.10;;
63882;SDS011;50047;50.596;30.466;2023-06-24T12:37:53;8.20;;;3.80;;
63882;SDS011;50047;50.596;30.466;2023-06-24T12:40:20;4.50;;;2.90;;
63882;SDS011;50047;50.596;30.466;2023-06-24T12:42:48;5.60;;;2.70;;
63882;SDS011;50047;50.596;30.466;2023-06-24T12:45:16;4.10;;;2.40;;
63882;SDS011;50047;50.596;30.466;2023-06-24T12:47:44;3.20;;;1.60;;
63882;SDS011;50047;50.596;30.466;2023-06-24T12:50:11;2.20;;;1.80;;
63882;SDS011;50047;50.596;30.466;2023-06-24T12:52:39;2.20;;;1.50;;
63882;SDS011;50047;50.596;30.466;2023-06-24T12:55:07;2.40;;;1.80;;
63882;SDS011;50047;50.596;30.466;2023-06-24T12:57:35;2.40;;;1.60;;
63882;SDS011;50047;50.596;30.466;2023-06-24T13:00:04;2.40;;;1.40;;
63882;SDS011;50047;50.596;30.466;2023-06-24T13:02:35;1.20;;;1.00;;
63882;SDS011;50047;50.596;30.466;2023-06-24T13:05:06;1.80;;;1.20;;
63882;SDS011;50047;50.596;30.466;2023-06-24T13:07:34;1.50;;;1.00;;
63882;SDS011;50047;50.596;30.466;2023-06-24T13:10:02;2.10;;;1.00;;
63882;SDS011;50047;50.596;30.466;2023-06-24T13:12:33;1.40;;;1.10;;
63882;SDS011;50047;50.596;30.466;2023-06-24T13:15:03;1.80;;;1.10;;
63882;SDS011;50047;50.596;30.466;2023-06-24T13:17:32;1.00;;;0.90;;
63882;SDS011;50047;50.596;30.466;2023-06-24T13:20:00;1.10;;;0.80;;
63882;SDS011;50047;50.596;30.466;2023-06-24T13:22:29;2.20;;;1.40;;
63882;SDS011;50047;50.596;30.466;2023-06-24T13:24:58;2.30;;;1.20;;
63882;SDS011;50047;50.596;30.466;2023-06-24T13:27:26;1.60;;;1.30;;
63882;SDS011;50047;50.596;30.466;2023-06-24T13:29:53;2.20;;;1.40;;
63882;SDS011;50047;50.596;30.466;2023-06-24T13:32:21;3.40;;;1.10;;
63882;SDS011;50047;50.596;30.466;2023-06-24T13:34:49;1.80;;;1.30;;
63882;SDS011;50047;50.596;30.466;2023-06-24T13:37:17;3.00;;;1.50;;
63882;SDS011;50047;50.596;30.466;2023-06-24T13:39:45;4.00;;;1.40;;
63882;SDS011;50047;50.596;30.466;2023-06-24T13:42:13;1.80;;;1.00;;
63882;SDS011;50047;50.596;30.466;2023-06-24T13:44:40;1.10;;;0.80;;
63882;SDS011;50047;50.596;30.466;2023-06-24T13:47:08;1.40;;;1.00;;
63882;SDS011;50047;50.596;30.466;2023-06-24T13:49:39;1.10;;;0.80;;
63882;SDS011;50047;50.596;30.466;2023-06-24T13:52:06;2.60;;;1.20;;
63882;SDS011;50047;50.596;30.466;2023-06-24T13:54:35;1.40;;;0.90;;
63882;SDS011;50047;50.596;30.466;2023-06-24T13:57:03;1.70;;;1.20;;
63882;SDS011;50047;50.596;30.466;2023-06-24T13:59:30;1.40;;;1.20;;
63882;SDS011;50047;50.596;30.466;2023-06-24T14:01:59;1.30;;;1.10;;
63882;SDS011;50047;50.596;30.466;2023-06-24T14:04:27;2.90;;;1.50;;
63882;SDS011;50047;50.596;30.466;2023-06-24T14:06:55;3.20;;;1.40;;
63882;SDS011;50047;50.596;30.466;2023-06-24T14:09:23;1.30;;;0.90;;
63882;SDS011;50047;50.596;30.466;2023-06-24T14:11:50;1.60;;;1.00;;
63882;SDS011;50047;50.596;30.466;2023-06-24T14:14:18;1.90;;;1.20;;
63882;SDS011;50047;50.596;30.466;2023-06-24T14:16:46;1.30;;;1.00;;
63882;SDS011;50047;50.596;30.466;2023-06-24T14:19:14;1.80;;;1.30;;
63882;SDS011;50047;50.596;30.466;2023-06-24T14:21:44;2.70;;;1.20;;
63882;SDS011;50047;50.596;30.466;2023-06-24T14:24:11;1.70;;;1.00;;
63882;SDS011;50047;50.596;30.466;2023-06-24T14:26:43;1.50;;;1.10;;
63882;SDS011;50047;50.596;30.466;2023-06-24T14:29:11;1.60;;;1.10;;
63882;SDS011;50047;50.596;30.466;2023-06-24T14:31:39;4.30;;;1.90;;
63882;SDS011;50047;50.596;30.466;2023-06-24T14:34:07;3.00;;;1.60;;
63882;SDS011;50047;50.596;30.466;2023-06-24T14:36:34;3.10;;;1.60;;
63882;SDS011;50047;50.596;30.466;2023-06-24T14:39:02;2.90;;;1.50;;
63882;SDS011;50047;50.596;30.466;2023-06-24T14:41:30;2.30;;;1.60;;
63882;SDS011;50047;50.596;30.466;2023-06-24T14:43:57;3.90;;;1.90;;
63882;SDS011;50047;50.596;30.466;2023-06-24T14:46:25;2.90;;;1.60;;
63882;SDS011;50047;50.596;30.466;2023-06-24T14:48:53;2.60;;;1.50;;
63882;SDS011;50047;50.596;30.466;2023-06-24T14:51:21;2.60;;;1.50;;
63882;SDS011;50047;50.596;30.466;2023-06-24T14:53:51;1.80;;;1.30;;
63882;SDS011;50047;50.596;30.466;2023-06-24T14:56:18;1.60;;;1.10;;
63882;SDS011;50047;50.596;30.466;2023-06-24T14:58:46;3.40;;;1.50;;